Time;durP1;ratioP1;P1;durP2;ratioP2;P2;SDS_P1;SDS_P2;PMS_P1;PMS_P2;Temp;Humidity;BMP_temperature;BMP_pressure;BME280_temperature;BME280_humidity;BME280_pressure;Samples;Min_cycle;Max_cycle;Signal;HPM_P1;HPM_P2
2024/02/25 00:01:20;;;;;;;3.80;1.00;;;7.30;99.90;;;;;;7287454;19;20312;-77
2024/02/25 00:03:45;;;;;;;2.80;1.00;;;7.30;99.90;;;;;;7288080;19;20724;-78
2024/02/25 00:06:11;;;;;;;1.57;0.90;;;7.40;99.90;;;;;;7287008;19;20250;-78
2024/02/25 00:08:37;;;;;;;2.80;1.03;;;7.50;99.90;;;;;;7289011;19;20189;-78
2024/02/25 00:11:03;;;;;;;2.57;1.17;;;7.40;99.90;;;;;;7285993;19;20191;-78
2024/02/25 00:13:28;;;;;;;1.97;1.00;;;7.40;99.90;;;;;;7288336;19;20216;-77
2024/02/25 00:15:54;;;;;;;2.33;1.10;;;7.40;99.90;;;;;;7298295;19;20252;-79
2024/02/25 00:18:20;;;;;;;3.00;1.00;;;7.40;99.90;;;;;;7285980;19;20188;-79
2024/02/25 00:20:46;;;;;;;1.93;1.20;;;7.40;99.90;;;;;;7286192;19;20657;-78
2024/02/25 00:23:12;;;;;;;1.67;1.00;;;7.30;99.90;;;;;;7288266;19;20206;-79
2024/02/25 00:25:37;;;;;;;2.37;0.90;;;7.30;99.90;;;;;;7287348;19;20203;-78
2024/02/25 00:28:04;;;;;;;3.17;1.10;;;7.40;99.90;;;;;;7286989;19;20196;-78
2024/02/25 00:30:30;;;;;;;2.83;1.20;;;7.50;99.90;;;;;;7287506;19;20671;-78
2024/02/25 00:32:56;;;;;;;2.87;1.20;;;7.60;99.90;;;;;;7305028;19;20201;-77
2024/02/25 00:35:22;;;;;;;2.40;0.90;;;7.60;99.90;;;;;;7301449;19;20193;-79
2024/02/25 00:37:47;;;;;;;3.37;0.90;;;7.40;99.90;;;;;;7287664;19;20189;-78
2024/02/25 00:40:14;;;;;;;1.40;1.00;;;7.40;99.90;;;;;;7288034;19;20215;-78
2024/02/25 00:42:41;;;;;;;1.63;1.00;;;7.30;99.90;;;;;;7286147;19;20244;-78
2024/02/25 00:45:09;;;;;;;3.30;1.00;;;7.30;99.90;;;;;;7287577;19;20197;-78
2024/02/25 00:47:35;;;;;;;2.13;1.13;;;7.40;99.90;;;;;;7285920;19;20313;-78
2024/02/25 00:50:01;;;;;;;3.00;1.20;;;7.40;99.90;;;;;;7285697;19;20279;-78
2024/02/25 00:52:27;;;;;;;1.97;1.30;;;7.40;99.90;;;;;;7290696;19;20699;-78
2024/02/25 00:54:53;;;;;;;2.37;1.17;;;7.50;99.90;;;;;;7308275;19;20199;-79
2024/02/25 00:57:20;;;;;;;1.37;1.00;;;7.50;99.90;;;;;;7286916;19;20644;-78
2024/02/25 00:59:45;;;;;;;1.90;1.10;;;7.50;99.90;;;;;;7286067;19;20346;-79
2024/02/25 01:02:11;;;;;;;4.10;1.50;;;7.50;99.90;;;;;;7285739;19;20774;-79
2024/02/25 01:04:37;;;;;;;3.67;1.30;;;7.50;99.90;;;;;;7286575;19;20196;-79
2024/02/25 01:07:03;;;;;;;3.03;1.40;;;7.50;99.90;;;;;;7286251;19;20522;-78
2024/02/25 01:09:30;;;;;;;3.17;1.43;;;7.50;99.90;;;;;;7286513;19;20188;-78
2024/02/25 01:11:57;;;;;;;4.03;1.40;;;7.60;99.90;;;;;;7304136;19;20618;-77
2024/02/25 01:14:24;;;;;;;3.10;1.50;;;7.70;99.90;;;;;;7309043;19;20184;-78
2024/02/25 01:16:50;;;;;;;1.40;1.20;;;7.70;99.90;;;;;;7286074;19;20298;-79
2024/02/25 01:19:17;;;;;;;4.07;1.83;;;7.70;99.90;;;;;;7288225;19;20201;-79
2024/02/25 01:21:44;;;;;;;2.80;1.50;;;7.60;99.90;;;;;;7286739;19;20192;-78
2024/02/25 01:24:09;;;;;;;3.73;1.70;;;7.50;99.90;;;;;;7287447;19;21111;-77
2024/02/25 01:26:41;;;;;;;5.50;2.00;;;7.50;99.90;;;;;;7287896;19;20208;-79
2024/02/25 01:29:07;;;;;;;2.90;1.97;;;7.50;99.90;;;;;;7286150;19;20185;-79
2024/02/25 01:31:46;;;;;;;4.22;2.20;;;7.60;99.90;;;;;;7284178;19;20704;-79
2024/02/25 01:34:12;;;;;;;3.77;1.80;;;7.50;99.90;;;;;;7286053;19;20188;-79
2024/02/25 01:36:41;;;;;;;3.57;2.00;;;7.70;99.90;;;;;;7286103;19;20552;-79
2024/02/25 01:39:08;;;;;;;3.60;2.17;;;7.70;99.90;;;;;;7287100;19;20193;-79
2024/02/25 01:41:34;;;;;;;4.00;2.10;;;7.80;99.90;;;;;;7285118;19;20192;-78
2024/02/25 01:43:59;;;;;;;3.93;2.03;;;7.90;99.90;;;;;;7285394;19;20913;-78
2024/02/25 01:46:25;;;;;;;4.17;2.40;;;8.00;99.90;;;;;;7307324;19;20553;-79
2024/02/25 01:48:52;;;;;;;3.17;2.10;;;8.00;99.90;;;;;;7286116;19;20763;-79
2024/02/25 01:51:22;;;;;;;5.13;2.50;;;8.00;99.90;;;;;;7282177;19;20197;-78
2024/02/25 01:53:50;;;;;;;6.87;2.50;;;8.00;99.90;;;;;;7284553;19;20189;-78
2024/02/25 01:56:19;;;;;;;7.10;2.67;;;8.00;99.90;;;;;;7285201;19;20205;-78
2024/02/25 01:58:52;;;;;;;5.33;2.70;;;7.80;99.90;;;;;;7286481;19;20196;-78
2024/02/25 02:01:19;;;;;;;4.70;2.50;;;7.80;99.90;;;;;;7285212;19;20296;-78
2024/02/25 02:03:45;;;;;;;5.00;2.87;;;7.90;99.90;;;;;;7284565;19;21936;-79
2024/02/25 02:06:11;;;;;;;6.50;3.37;;;7.80;99.90;;;;;;7285364;19;20184;-77
2024/02/25 02:08:37;;;;;;;5.87;3.27;;;7.90;99.90;;;;;;7283036;19;20189;-78
2024/02/25 02:11:20;;;;;;;7.33;3.50;;;7.80;99.90;;;;;;7284838;19;20292;-77
2024/02/25 02:13:47;;;;;;;6.00;3.23;;;7.90;99.90;;;;;;7284004;19;20193;-79
2024/02/25 02:16:15;;;;;;;9.17;3.17;;;8.00;99.90;;;;;;7283673;19;20258;-79
2024/02/25 02:18:41;;;;;;;5.73;3.13;;;8.00;99.90;;;;;;7285260;19;20189;-78
2024/02/25 02:21:15;;;;;;;6.73;3.23;;;8.00;99.90;;;;;;7283347;19;20263;-79
2024/02/25 02:23:41;;;;;;;8.70;3.80;;;8.00;99.90;;;;;;7285712;19;20216;-78
2024/02/25 02:26:06;;;;;;;6.37;3.57;;;8.00;99.90;;;;;;7283406;19;20188;-78
2024/02/25 02:28:32;;;;;;;9.27;3.93;;;8.00;99.90;;;;;;7283956;19;20205;-78
2024/02/25 02:30:58;;;;;;;8.17;4.00;;;8.00;99.90;;;;;;7284088;19;20571;-78
2024/02/25 02:33:23;;;;;;;8.03;3.83;;;8.00;99.90;;;;;;7305621;19;20208;-79
2024/02/25 02:35:50;;;;;;;7.37;3.97;;;8.00;99.90;;;;;;7283579;19;20197;-78
2024/02/25 02:38:16;;;;;;;9.33;4.10;;;8.00;99.90;;;;;;7284210;19;20194;-78
2024/02/25 02:40:42;;;;;;;8.50;4.00;;;8.10;99.90;;;;;;7282918;19;20220;-78
2024/02/25 02:43:07;;;;;;;8.20;4.10;;;8.30;99.90;;;;;;7282727;19;20196;-77
2024/02/25 02:45:33;;;;;;;8.43;4.17;;;8.30;99.90;;;;;;7284080;19;20185;-78
2024/02/25 02:47:59;;;;;;;7.03;3.83;;;8.20;99.90;;;;;;7282225;19;20197;-79
2024/02/25 02:50:25;;;;;;;7.90;4.10;;;8.30;99.90;;;;;;7305443;19;20188;-77
2024/02/25 02:52:51;;;;;;;8.70;4.07;;;8.20;99.90;;;;;;7284241;19;20181;-78
2024/02/25 02:55:17;;;;;;;8.90;4.33;;;8.30;99.90;;;;;;7284180;19;20183;-78
2024/02/25 02:57:42;;;;;;;8.10;4.27;;;8.30;99.90;;;;;;7284146;19;20200;-79
2024/02/25 03:00:08;;;;;;;7.90;3.70;;;8.20;99.90;;;;;;7285354;19;20181;-78
2024/02/25 03:02:34;;;;;;;7.00;3.70;;;8.20;99.90;;;;;;7283473;19;21055;-79
2024/02/25 03:05:00;;;;;;;7.10;3.73;;;8.20;99.90;;;;;;7283870;19;20237;-78
2024/02/25 03:07:29;;;;;;;8.10;4.00;;;8.20;99.90;;;;;;7301711;19;20671;-77
2024/02/25 03:09:55;;;;;;;6.03;3.33;;;8.30;99.90;;;;;;7304845;19;20199;-78
2024/02/25 03:12:21;;;;;;;8.07;3.93;;;8.20;99.90;;;;;;7283162;19;20256;-78
2024/02/25 03:14:46;;;;;;;12.10;3.57;;;8.30;99.90;;;;;;7283861;19;20195;-79
2024/02/25 03:17:12;;;;;;;7.43;3.70;;;8.30;99.90;;;;;;7285258;19;20657;-78
2024/02/25 03:19:38;;;;;;;11.10;4.00;;;8.30;99.90;;;;;;7280821;19;20197;-79
2024/02/25 03:22:03;;;;;;;10.20;4.07;;;8.50;99.90;;;;;;7283052;19;20222;-79
2024/02/25 03:24:29;;;;;;;10.63;4.10;;;8.50;99.90;;;;;;7283271;19;20185;-78
2024/02/25 03:26:55;;;;;;;10.50;4.00;;;8.50;99.90;;;;;;7304430;19;20191;-79
2024/02/25 03:29:20;;;;;;;10.73;4.27;;;8.50;99.90;;;;;;7281960;19;20585;-79
2024/02/25 03:31:47;;;;;;;10.80;4.43;;;8.40;99.90;;;;;;7283657;19;20217;-79
2024/02/25 03:34:14;;;;;;;9.37;4.27;;;8.30;99.90;;;;;;7282669;19;20224;-78
2024/02/25 03:36:40;;;;;;;12.17;4.70;;;8.40;99.90;;;;;;7283514;19;20196;-78
2024/02/25 03:39:06;;;;;;;10.57;4.73;;;8.40;99.90;;;;;;7283963;19;20705;-78
2024/02/25 03:41:32;;;;;;;11.80;4.80;;;8.30;99.90;;;;;;7282988;19;20285;-77
2024/02/25 03:43:58;;;;;;;21.50;6.60;;;8.30;99.90;;;;;;7282708;19;20193;-78
2024/02/25 03:46:23;;;;;;;12.43;5.63;;;8.30;99.90;;;;;;7304966;19;20981;-78
2024/02/25 03:48:49;;;;;;;10.37;4.50;;;8.40;99.90;;;;;;7281725;19;20192;-78
2024/02/25 03:51:15;;;;;;;11.60;5.10;;;8.30;99.90;;;;;;7282129;19;20201;-78
2024/02/25 03:53:43;;;;;;;12.97;4.60;;;8.30;99.90;;;;;;7281625;19;20185;-78
2024/02/25 03:56:09;;;;;;;10.60;5.03;;;8.40;99.90;;;;;;7282500;19;20202;-79
2024/02/25 03:58:35;;;;;;;15.50;4.80;;;8.40;99.90;;;;;;7282982;19;20218;-78
2024/02/25 04:01:00;;;;;;;13.83;5.20;;;8.50;99.90;;;;;;7280957;19;20196;-78
2024/02/25 04:03:26;;;;;;;12.27;4.80;;;8.40;99.90;;;;;;7298972;19;20205;-78
2024/02/25 04:05:52;;;;;;;11.30;4.40;;;8.30;99.90;;;;;;7293514;19;20190;-78
2024/02/25 04:08:17;;;;;;;12.53;4.77;;;8.40;99.90;;;;;;7282133;19;20186;-78
2024/02/25 04:10:44;;;;;;;13.50;4.93;;;8.30;99.90;;;;;;7282794;19;20185;-78
2024/02/25 04:13:10;;;;;;;11.13;4.73;;;8.40;99.90;;;;;;7281197;19;20185;-79
2024/02/25 04:15:36;;;;;;;12.37;4.93;;;8.30;99.90;;;;;;7282659;19;20830;-77
2024/02/25 04:18:01;;;;;;;13.17;5.20;;;8.40;99.90;;;;;;7280305;19;20191;-78
2024/02/25 04:20:27;;;;;;;14.93;4.87;;;8.40;99.90;;;;;;7286005;19;20189;-78
2024/02/25 04:22:53;;;;;;;14.87;5.33;;;8.40;99.90;;;;;;7304513;19;20185;-78
2024/02/25 04:25:19;;;;;;;14.80;5.80;;;8.50;99.90;;;;;;7286662;19;20183;-80
2024/02/25 04:27:44;;;;;;;15.57;5.13;;;8.60;99.90;;;;;;7287780;19;20646;-79
2024/02/25 04:30:11;;;;;;;12.77;5.20;;;8.60;99.90;;;;;;7288176;19;20599;-79
2024/02/25 04:32:40;;;;;;;13.80;5.23;;;8.60;99.90;;;;;;7288375;19;20219;-79
2024/02/25 04:35:06;;;;;;;15.20;5.30;;;8.60;99.90;;;;;;7284288;19;20202;-78
2024/02/25 04:37:32;;;;;;;13.17;5.90;;;8.50;99.90;;;;;;7286420;19;20181;-78
2024/02/25 04:39:58;;;;;;;14.93;5.77;;;8.50;99.90;;;;;;7288512;19;20191;-78
2024/02/25 04:42:23;;;;;;;13.07;5.30;;;8.50;99.90;;;;;;7308771;19;20185;-79
2024/02/25 04:44:49;;;;;;;17.70;6.23;;;8.50;99.90;;;;;;7288921;19;20187;-79
2024/02/25 04:47:15;;;;;;;16.13;6.10;;;8.40;99.90;;;;;;7287403;19;20182;-78
2024/02/25 04:49:40;;;;;;;15.37;6.10;;;8.40;99.90;;;;;;7287700;19;20193;-78
2024/02/25 04:52:10;;;;;;;19.83;6.03;;;8.50;99.90;;;;;;7288690;19;20188;-78
2024/02/25 04:54:36;;;;;;;16.83;6.17;;;8.60;99.90;;;;;;7285377;19;20185;-78
2024/02/25 04:57:02;;;;;;;15.60;5.70;;;8.70;99.90;;;;;;7287985;19;20613;-78
2024/02/25 04:59:28;;;;;;;16.83;6.37;;;8.70;99.90;;;;;;7288441;19;20190;-78
2024/02/25 05:01:53;;;;;;;19.23;7.13;;;8.70;99.90;;;;;;7309084;19;20743;-79
2024/02/25 05:04:19;;;;;;;18.80;6.53;;;8.60;99.90;;;;;;7286525;19;20273;-78
2024/02/25 05:06:45;;;;;;;19.00;6.87;;;8.60;99.90;;;;;;7285793;19;20261;-77
2024/02/25 05:09:10;;;;;;;18.37;7.23;;;8.60;99.90;;;;;;7285409;19;20189;-78
2024/02/25 05:11:36;;;;;;;19.30;6.53;;;8.60;99.90;;;;;;7287234;19;20205;-79
2024/02/25 05:14:02;;;;;;;15.20;6.47;;;8.60;99.90;;;;;;7285298;19;20282;-79
2024/02/25 05:16:31;;;;;;;15.43;5.93;;;8.60;99.90;;;;;;7285799;19;20234;-77
2024/02/25 05:18:57;;;;;;;12.63;5.27;;;8.60;99.90;;;;;;7295271;19;20185;-77
2024/02/25 05:21:23;;;;;;;13.57;5.50;;;8.50;99.90;;;;;;7306219;19;20193;-78
2024/02/25 05:23:48;;;;;;;13.33;5.63;;;8.50;99.90;;;;;;7285424;19;20759;-77
2024/02/25 05:26:14;;;;;;;14.57;5.37;;;8.40;99.90;;;;;;7287029;19;20197;-78
2024/02/25 05:28:40;;;;;;;11.87;5.20;;;8.40;99.90;;;;;;7283930;19;20203;-78
2024/02/25 05:31:06;;;;;;;14.93;5.10;;;8.40;99.90;;;;;;7286939;19;20197;-78
2024/02/25 05:33:32;;;;;;;9.70;4.67;;;8.30;99.90;;;;;;7285503;19;20208;-78
2024/02/25 05:35:57;;;;;;;10.53;4.60;;;8.40;99.90;;;;;;7289327;19;20193;-78
2024/02/25 05:38:23;;;;;;;15.60;4.83;;;8.20;99.90;;;;;;7308955;19;20599;-78
2024/02/25 05:40:49;;;;;;;12.60;4.43;;;8.20;99.90;;;;;;7285082;19;20210;-77
2024/02/25 05:43:14;;;;;;;14.27;4.83;;;8.20;99.90;;;;;;7285008;19;20643;-78
2024/02/25 05:45:41;;;;;;;12.97;4.87;;;8.20;99.90;;;;;;7283928;19;20186;-78
2024/02/25 05:48:07;;;;;;;12.03;5.17;;;8.20;99.90;;;;;;7283922;19;20216;-78
2024/02/25 05:50:33;;;;;;;15.13;5.40;;;8.20;99.90;;;;;;7284830;19;20190;-77
2024/02/25 05:52:58;;;;;;;12.87;5.80;;;8.20;99.90;;;;;;7285035;19;20187;-77
2024/02/25 05:55:24;;;;;;;15.93;5.97;;;8.20;99.90;;;;;;7306787;19;20189;-78
2024/02/25 05:57:50;;;;;;;13.63;5.60;;;8.20;99.90;;;;;;7285756;19;20191;-77
2024/02/25 06:00:16;;;;;;;15.40;6.03;;;8.20;99.90;;;;;;7284478;19;21050;-78
2024/02/25 06:02:46;;;;;;;16.20;5.87;;;8.30;99.90;;;;;;7286028;19;20568;-79
2024/02/25 06:05:15;;;;;;;14.43;5.20;;;8.40;99.90;;;;;;7284068;19;20208;-79
2024/02/25 06:07:42;;;;;;;10.37;4.60;;;8.50;99.90;;;;;;7282932;19;20190;-79
2024/02/25 06:10:08;;;;;;;14.23;4.57;;;8.50;99.90;;;;;;7286270;19;20214;-79
2024/02/25 06:12:35;;;;;;;10.80;4.77;;;8.40;99.90;;;;;;7282956;19;20198;-79
2024/02/25 06:15:11;;;;;;;12.40;4.33;;;8.40;99.90;;;;;;7282770;19;20193;-78
2024/02/25 06:17:38;;;;;;;9.13;3.83;;;8.40;99.90;;;;;;7284707;19;20194;-78
2024/02/25 06:20:09;;;;;;;8.77;3.97;;;8.30;99.90;;;;;;7284989;19;20186;-79
2024/02/25 06:22:36;;;;;;;9.40;3.63;;;8.40;99.90;;;;;;7278368;19;20182;-78
2024/02/25 06:25:03;;;;;;;9.97;3.67;;;8.50;99.90;;;;;;7281978;19;20281;-79
2024/02/25 06:27:29;;;;;;;12.33;3.90;;;8.50;99.90;;;;;;7281915;19;20213;-78
2024/02/25 06:29:54;;;;;;;8.70;3.70;;;8.60;99.90;;;;;;7306072;19;20193;-78
2024/02/25 06:32:20;;;;;;;10.40;3.90;;;8.60;99.90;;;;;;7284556;19;20193;-79
2024/02/25 06:34:46;;;;;;;11.83;3.73;;;8.60;99.90;;;;;;7282865;19;20214;-78
2024/02/25 06:37:14;;;;;;;14.43;4.33;;;8.60;99.90;;;;;;7282946;19;20199;-78
2024/02/25 06:39:42;;;;;;;9.50;3.77;;;8.60;99.90;;;;;;7284317;19;20669;-77
2024/02/25 06:42:08;;;;;;;10.37;3.53;;;8.50;99.90;;;;;;7283964;19;20680;-78
2024/02/25 06:44:34;;;;;;;11.40;3.97;;;8.50;99.90;;;;;;7284622;19;20191;-79
2024/02/25 06:46:59;;;;;;;11.20;4.30;;;8.60;99.90;;;;;;7283816;19;20198;-79
2024/02/25 06:49:27;;;;;;;8.97;4.10;;;8.70;99.90;;;;;;7306124;19;20193;-79
2024/02/25 06:51:56;;;;;;;11.17;4.20;;;8.70;99.90;;;;;;7285150;19;20182;-79
2024/02/25 06:54:22;;;;;;;11.47;4.10;;;8.70;99.90;;;;;;7285236;19;20189;-79
2024/02/25 06:56:48;;;;;;;14.10;4.23;;;8.80;99.90;;;;;;7283748;19;20187;-78
2024/02/25 06:59:13;;;;;;;8.53;3.90;;;8.70;99.90;;;;;;7283718;19;20203;-79
2024/02/25 07:01:39;;;;;;;8.47;3.70;;;8.70;99.90;;;;;;7322817;19;20214;-78
2024/02/25 07:04:05;;;;;;;7.20;3.67;;;8.80;99.90;;;;;;7284240;19;20188;-78
2024/02/25 07:06:31;;;;;;;9.67;4.20;;;8.80;99.90;;;;;;7367936;19;20687;-78
2024/02/25 07:08:57;;;;;;;11.23;4.20;;;8.80;99.90;;;;;;7302549;19;20252;-77
2024/02/25 07:11:23;;;;;;;11.23;4.37;;;8.80;99.90;;;;;;7357265;19;20197;-78
2024/02/25 07:13:49;;;;;;;12.67;3.87;;;8.70;99.90;;;;;;7305862;19;20202;-79
2024/02/25 07:16:15;;;;;;;11.63;4.57;;;8.70;99.90;;;;;;7286400;19;20218;-78
2024/02/25 07:18:41;;;;;;;11.83;3.90;;;8.80;99.90;;;;;;7282756;19;20195;-79
2024/02/25 07:21:08;;;;;;;12.97;4.23;;;8.80;99.90;;;;;;7280719;19;20198;-81
2024/02/25 07:23:39;;;;;;;8.93;4.13;;;8.90;99.90;;;;;;7282625;19;20688;-78
2024/02/25 07:26:06;;;;;;;14.13;4.50;;;9.00;99.90;;;;;;7279220;19;20690;-78
2024/02/25 07:28:32;;;;;;;11.03;4.80;;;9.00;99.90;;;;;;7281376;19;20199;-78
2024/02/25 07:31:01;;;;;;;12.30;4.90;;;9.00;99.90;;;;;;7324799;19;20204;-78
2024/02/25 07:33:27;;;;;;;12.90;4.83;;;8.90;99.90;;;;;;7299507;19;20703;-77
2024/02/25 07:35:53;;;;;;;14.83;4.97;;;8.90;99.90;;;;;;7318421;19;20827;-78
2024/02/25 07:38:18;;;;;;;10.50;4.67;;;8.90;99.90;;;;;;7301511;19;20196;-78
2024/02/25 07:40:44;;;;;;;10.87;4.90;;;9.00;99.90;;;;;;7279868;19;20595;-78
2024/02/25 07:43:10;;;;;;;9.57;4.57;;;9.20;99.90;;;;;;7278814;19;20589;-78
2024/02/25 07:45:35;;;;;;;9.40;4.50;;;9.20;99.90;;;;;;7301534;19;20257;-78
2024/02/25 07:48:03;;;;;;;10.40;4.47;;;9.00;99.90;;;;;;7302238;19;20189;-78
2024/02/25 07:50:29;;;;;;;12.53;4.17;;;9.10;99.90;;;;;;7281270;19;20234;-78
2024/02/25 07:52:55;;;;;;;11.53;4.90;;;9.30;99.90;;;;;;7303719;19;20187;-79
2024/02/25 07:55:21;;;;;;;12.47;4.63;;;9.40;99.90;;;;;;7282577;19;20197;-79
2024/02/25 07:57:46;;;;;;;11.40;5.33;;;9.40;99.90;;;;;;7283789;19;20766;-79
2024/02/25 08:00:12;;;;;;;14.23;5.10;;;9.50;99.90;;;;;;7290041;19;20221;-78
2024/02/25 08:02:38;;;;;;;10.00;4.20;;;9.50;99.90;;;;;;7290012;19;20194;-79
2024/02/25 08:05:07;;;;;;;13.17;4.57;;;9.40;99.90;;;;;;7286661;19;20204;-78
2024/02/25 08:07:33;;;;;;;11.27;4.07;;;9.10;99.90;;;;;;7289750;19;20196;-78
2024/02/25 08:09:59;;;;;;;8.27;4.10;;;9.30;99.90;;;;;;7287549;19;20185;-78
2024/02/25 08:12:25;;;;;;;10.67;4.37;;;9.30;99.90;;;;;;7309964;19;20579;-79
2024/02/25 08:14:54;;;;;;;12.73;4.50;;;9.30;99.90;;;;;;7287911;19;20194;-78
2024/02/25 08:17:20;;;;;;;9.80;4.20;;;9.30;99.90;;;;;;7287279;19;20254;-78
2024/02/25 08:19:47;;;;;;;10.90;4.27;;;9.40;99.90;;;;;;7289110;19;25974;-78
2024/02/25 08:22:13;;;;;;;8.57;4.20;;;9.40;99.90;;;;;;7288509;19;20602;-77
2024/02/25 08:24:39;;;;;;;12.70;4.53;;;9.50;99.90;;;;;;7286332;19;20236;-77
2024/02/25 08:27:04;;;;;;;9.67;4.27;;;9.60;99.90;;;;;;7287645;19;20214;-78
2024/02/25 08:29:31;;;;;;;10.20;4.33;;;10.00;99.90;;;;;;7288343;19;20205;-77
2024/02/25 08:31:56;;;;;;;8.70;4.23;;;10.10;99.90;;;;;;7311569;19;20325;-78
2024/02/25 08:34:22;;;;;;;10.90;3.70;;;10.20;99.90;;;;;;7286909;19;20645;-78
2024/02/25 08:36:51;;;;;;;10.83;4.50;;;10.00;99.90;;;;;;7286381;19;20192;-78
2024/02/25 08:39:17;;;;;;;10.33;3.70;;;9.90;99.90;;;;;;7288068;19;20204;-78
2024/02/25 08:41:43;;;;;;;11.00;4.90;;;9.90;99.90;;;;;;7287438;19;20197;-78
2024/02/25 08:44:08;;;;;;;8.93;3.53;;;9.80;99.90;;;;;;7285482;19;20208;-78
2024/02/25 08:46:34;;;;;;;10.33;3.77;;;9.80;99.90;;;;;;7286719;19;20192;-78
2024/02/25 08:49:00;;;;;;;9.97;3.90;;;9.50;99.90;;;;;;7286548;19;20191;-77
2024/02/25 08:51:26;;;;;;;11.13;3.90;;;9.50;99.90;;;;;;7311188;19;20283;-78
2024/02/25 08:53:51;;;;;;;9.70;3.40;;;9.60;99.90;;;;;;7288655;19;20646;-78
2024/02/25 08:56:17;;;;;;;10.73;4.07;;;9.60;99.90;;;;;;7286121;19;20196;-77
2024/02/25 08:58:43;;;;;;;8.27;3.20;;;9.40;99.90;;;;;;7287636;19;20211;-78
2024/02/25 09:01:09;;;;;;;11.60;3.80;;;9.40;99.90;;;;;;7287092;19;20641;-78
2024/02/25 09:03:35;;;;;;;9.90;3.60;;;9.40;99.90;;;;;;7285764;19;20204;-77
2024/02/25 09:06:01;;;;;;;16.97;3.77;;;9.40;99.90;;;;;;7288060;19;20202;-78
2024/02/25 09:08:27;;;;;;;12.73;3.40;;;9.70;99.90;;;;;;7306542;19;20554;-74
2024/02/25 09:10:52;;;;;;;11.13;3.10;;;10.10;99.90;;;;;;7295064;19;20191;-78
2024/02/25 09:13:18;;;;;;;6.80;2.30;;;10.10;99.90;;;;;;7286598;19;20281;-77
2024/02/25 09:15:44;;;;;;;12.57;2.63;;;10.40;99.90;;;;;;7285459;19;20203;-79
2024/02/25 09:18:10;;;;;;;11.20;2.87;;;10.20;99.90;;;;;;7286689;19;20205;-78
2024/02/25 09:20:35;;;;;;;9.17;2.50;;;10.40;99.90;;;;;;7286406;19;20612;-77
2024/02/25 09:23:04;;;;;;;11.33;2.77;;;10.40;99.90;;;;;;7285833;19;20602;-77
2024/02/25 09:25:33;;;;;;;8.93;2.40;;;10.40;99.90;;;;;;7283492;19;20191;-77
2024/02/25 09:28:03;;;;;;;11.90;2.63;;;10.60;99.90;;;;;;7284183;19;20211;-81
2024/02/25 09:30:29;;;;;;;9.63;2.57;;;10.50;99.90;;;;;;7282027;19;20224;-75
2024/02/25 09:32:55;;;;;;;11.63;3.03;;;10.40;99.90;;;;;;7303491;19;20194;-76
2024/02/25 09:35:21;;;;;;;8.37;2.83;;;10.20;99.90;;;;;;7281543;19;20186;-75
2024/02/25 09:37:47;;;;;;;11.40;3.60;;;10.20;99.90;;;;;;7284984;19;20203;-79
2024/02/25 09:40:13;;;;;;;11.17;2.80;;;10.20;99.90;;;;;;7286124;19;20285;-77
2024/02/25 09:42:43;;;;;;;9.53;2.67;;;10.20;99.90;;;;;;7284032;19;20198;-76
2024/02/25 09:45:20;;;;;;;11.47;2.80;;;9.90;99.90;;;;;;7284743;19;20664;-76
2024/02/25 09:47:46;;;;;;;10.23;3.57;;;10.00;99.90;;;;;;7285517;19;20201;-77
2024/02/25 09:50:14;;;;;;;11.43;2.57;;;10.10;99.90;;;;;;7284615;19;20531;-76
2024/02/25 09:52:40;;;;;;;10.70;3.13;;;10.10;99.90;;;;;;7283899;19;20209;-77
2024/02/25 09:55:09;;;;;;;11.87;3.60;;;10.10;99.90;;;;;;7303512;19;20761;-76
2024/02/25 09:57:34;;;;;;;10.30;3.60;;;10.10;99.90;;;;;;7366463;19;20247;-77
2024/02/25 10:00:00;;;;;;;12.07;3.60;;;10.20;99.90;;;;;;7302694;19;20275;-77
2024/02/25 10:02:26;;;;;;;12.97;3.50;;;10.30;99.90;;;;;;7320583;19;20196;-77
2024/02/25 10:04:53;;;;;;;9.33;2.70;;;10.70;99.90;;;;;;7280962;19;20203;-77
2024/02/25 10:07:19;;;;;;;10.50;2.90;;;10.70;99.90;;;;;;7319581;19;20193;-76
2024/02/25 10:09:48;;;;;;;11.27;3.00;;;10.50;99.90;;;;;;7282098;19;20191;-77
2024/02/25 10:12:14;;;;;;;9.47;3.07;;;10.40;99.90;;;;;;7343958;19;20191;-77
2024/02/25 10:14:41;;;;;;;8.30;2.47;;;10.10;99.90;;;;;;7277959;19;20648;-76
2024/02/25 10:17:09;;;;;;;11.97;3.43;;;10.20;99.90;;;;;;7346356;19;20185;-77
2024/02/25 10:19:35;;;;;;;11.20;3.67;;;10.30;99.90;;;;;;7280262;19;20187;-77
2024/02/25 10:22:19;;;;;;;10.20;3.10;;;10.30;99.90;;;;;;7274902;19;20191;-77
2024/02/25 10:24:44;;;;;;;14.63;3.40;;;10.50;99.90;;;;;;7282378;19;20218;-77
2024/02/25 10:27:12;;;;;;;11.00;2.60;;;10.40;99.90;;;;;;7278094;19;20261;-78
2024/02/25 10:29:59;;;;;;;15.33;3.50;;;10.40;99.90;;;;;;7279600;19;20221;-77
2024/02/25 10:32:28;;;;;;;12.07;2.77;;;10.40;99.90;;;;;;7321517;19;20198;-77
2024/02/25 10:34:59;;;;;;;13.93;3.50;;;10.70;99.90;;;;;;7302577;19;20189;-77
2024/02/25 10:37:26;;;;;;;12.70;2.87;;;10.80;99.90;;;;;;7343471;19;20609;-78
2024/02/25 10:40:06;;;;;;;13.20;2.70;;;10.60;99.90;;;;;;7282593;19;20188;-77
2024/02/25 10:42:33;;;;;;;14.37;3.67;;;10.80;99.90;;;;;;7299259;19;20192;-76
2024/02/25 10:45:00;;;;;;;15.00;3.33;;;10.90;99.90;;;;;;7303343;19;20551;-77
2024/02/25 10:47:26;;;;;;;16.80;2.70;;;11.00;99.90;;;;;;7343905;19;20184;-76
2024/02/25 10:49:54;;;;;;;15.63;3.00;;;10.70;99.90;;;;;;7280678;19;20191;-77
2024/02/25 10:52:22;;;;;;;14.20;2.90;;;10.80;99.90;;;;;;7322955;19;20235;-77
2024/02/25 10:54:50;;;;;;;13.23;2.30;;;10.90;99.90;;;;;;7302486;19;20194;-76
2024/02/25 10:57:21;;;;;;;11.03;2.70;;;10.60;99.90;;;;;;7365958;19;20231;-76
2024/02/25 10:59:48;;;;;;;8.60;1.87;;;10.80;99.90;;;;;;7278416;19;20429;-77
2024/02/25 11:02:17;;;;;;;12.90;2.20;;;11.20;99.90;;;;;;7320695;19;20571;-76
2024/02/25 11:04:45;;;;;;;12.33;2.33;;;11.40;99.90;;;;;;7279062;19;20191;-76
2024/02/25 11:07:11;;;;;;;9.77;2.20;;;11.00;99.90;;;;;;7364228;19;20133;-77
2024/02/25 11:09:37;;;;;;;12.77;2.57;;;11.20;99.90;;;;;;7280645;19;20189;-77
2024/02/25 11:12:24;;;;;;;10.40;2.03;;;11.50;99.90;;;;;;7282449;19;20212;-77
2024/02/25 11:15:08;;;;;;;13.27;2.30;;;11.40;99.90;;;;;;7281202;19;20192;-77
2024/02/25 11:17:40;;;;;;;12.53;2.53;;;11.60;99.90;;;;;;7178511;19;2004769;-76
2024/02/25 11:20:08;;;;;;;9.10;2.27;;;11.80;99.90;;;;;;7282200;19;20504;-77
2024/02/25 11:22:52;;;;;;;10.63;1.83;;;12.40;99.90;;;;;;7280605;19;20181;-76
2024/02/25 11:25:30;;;;;;;11.93;2.50;;;12.80;99.90;;;;;;7282015;19;20192;-77
2024/02/25 11:28:22;;;;;;;25.47;6.93;;;12.80;99.90;;;;;;7277723;19;20200;-77
2024/02/25 11:30:50;;;;;;;35.43;12.70;;;12.70;99.90;;;;;;7177133;19;2006872;-77
2024/02/25 11:33:36;;;;;;;58.23;21.97;;;13.10;99.90;;;;;;7278573;19;20206;-76
2024/02/25 11:36:05;;;;;;;10.53;2.10;;;13.70;99.90;;;;;;7258574;19;20198;-77
2024/02/25 11:38:32;;;;;;;7.60;1.53;;;14.60;99.90;;;;;;7279724;19;20202;-77
2024/02/25 11:40:59;;;;;;;11.67;2.30;;;14.60;99.90;;;;;;7289636;19;20807;-77
2024/02/25 11:43:25;;;;;;;8.03;1.40;;;14.90;99.90;;;;;;7301159;19;20184;-77
2024/02/25 11:45:51;;;;;;;10.20;1.60;;;14.70;99.90;;;;;;7279016;19;20207;-77
2024/02/25 11:48:17;;;;;;;8.87;1.23;;;15.10;99.90;;;;;;7278994;19;20320;-78
2024/02/25 11:50:43;;;;;;;12.03;2.60;;;14.80;99.90;;;;;;7279612;19;20547;-77
2024/02/25 11:53:09;;;;;;;14.97;7.27;;;15.60;99.90;;;;;;7278301;19;20191;-76
2024/02/25 11:55:35;;;;;;;13.73;4.73;;;15.20;99.90;;;;;;7278754;19;20182;-76
2024/02/25 11:58:01;;;;;;;11.03;2.40;;;16.00;99.90;;;;;;7278830;19;20225;-76
2024/02/25 12:00:28;;;;;;;5.90;1.20;;;15.80;99.90;;;;;;7293879;19;20658;-76
2024/02/25 12:02:56;;;;;;;6.53;1.37;;;15.70;99.90;;;;;;7298113;19;20298;-77
2024/02/25 12:05:22;;;;;;;7.83;1.27;;;15.90;99.90;;;;;;7280087;19;20631;-78
2024/02/25 12:07:57;;;;;;;5.73;1.20;;;15.70;99.90;;;;;;7277997;19;20189;-77
2024/02/25 12:10:27;;;;;;;6.60;1.33;;;15.40;99.90;;;;;;7277584;19;20810;-76
2024/02/25 12:12:54;;;;;;;5.40;1.20;;;15.50;99.90;;;;;;7277995;19;20186;-77
2024/02/25 12:15:24;;;;;;;8.43;1.43;;;15.60;99.90;;;;;;7278761;19;20218;-77
2024/02/25 12:17:50;;;;;;;6.23;1.00;;;16.30;99.90;;;;;;7279904;19;20292;-77
2024/02/25 12:20:17;;;;;;;4.10;0.80;;;17.10;99.90;;;;;;7276509;19;20692;-77
2024/02/25 12:22:45;;;;;;;8.23;1.10;;;16.90;99.90;;;;;;7277711;19;20546;-77
2024/02/25 12:25:17;;;;;;;5.37;1.10;;;16.60;99.90;;;;;;7279278;19;20685;-78
2024/02/25 12:27:45;;;;;;;6.63;1.17;;;16.50;99.90;;;;;;7277735;19;20194;-78
2024/02/25 12:30:12;;;;;;;4.70;0.90;;;16.70;99.90;;;;;;7278456;19;20193;-77
2024/02/25 12:32:38;;;;;;;8.43;1.37;;;16.40;99.90;;;;;;7278919;19;20656;-77
2024/02/25 12:35:06;;;;;;;6.53;0.90;;;14.80;99.90;;;;;;7277608;19;20281;-77
2024/02/25 12:37:32;;;;;;;4.97;1.10;;;13.70;99.90;;;;;;7277831;19;20655;-77
2024/02/25 12:39:58;;;;;;;7.23;1.20;;;13.10;99.90;;;;;;7296094;19;20264;-77
2024/02/25 12:42:26;;;;;;;6.90;1.27;;;13.10;99.90;;;;;;7297462;19;20205;-77
2024/02/25 12:44:52;;;;;;;3.87;0.90;;;13.10;99.90;;;;;;7282106;19;20651;-77
2024/02/25 12:47:18;;;;;;;5.17;1.10;;;13.60;99.90;;;;;;7287743;19;20205;-77